CEG2 weather

CLOSED Acme Airport
Acme, Alberta, Canada

Public forecast

Using degrees Celsius for public forecast. Weather courtesy of forecast.io.

METAR (pilot weather report)

Closest report is Calgary International Airport, 28.0 nm (51.8 km) SW. Retrieved 2019/06/25 21:00 UTC (18 minutes ago):

CYYC 252100Z 21006KT 190V260 40SM BKN043TCU 16/07 A2985 RMK TCU7 SH DIST NW SLP119 DENSITY ALT 4700FT

TAF (pilot weather forecast)

Closest forecast is Calgary International Airport, 28.0 nm (51.8 km) SW. Retrieved 2019/06/25 21:39 UTC (0 seconds ago):

TAF CYYC 252038Z 2521/2618 VRB03KT P6SM BKN040 TEMPO 2521/2604 P6SM -SHRA VCTS BKN040CB FM260400 30008KT P6SM SCT020 BKN060 TEMPO 2604/2609 6SM -SHRA BR BKN020 FM260900 26005KT P6SM SCT020 BKN060 TEMPO 2609/2615 4SM -SHRA BR SCT006 OVC020 FM261500 VRB03KT P6SM SCT020 RMK NXT FCST BY 260000Z